sensor_id;sensor_type;location;lat;lon;timestamp;P1;durP1;ratioP1;P2;durP2;ratioP2
10503;SDS011;5299;48.704;9.138;2022-07-21T00:03:26;20.85;;;18.05;;
10503;SDS011;5299;48.704;9.138;2022-07-21T00:08:32;17.85;;;15.73;;
10503;SDS011;5299;48.704;9.138;2022-07-21T00:13:16;17.38;;;15.63;;
10503;SDS011;5299;48.704;9.138;2022-07-21T00:18:33;20.70;;;18.27;;
10503;SDS011;5299;48.704;9.138;2022-07-21T00:28:47;17.15;;;15.38;;
10503;SDS011;5299;48.704;9.138;2022-07-21T00:33:55;16.80;;;14.98;;
10503;SDS011;5299;48.704;9.138;2022-07-21T00:55:02;18.42;;;15.10;;
10503;SDS011;5299;48.704;9.138;2022-07-21T01:00:24;15.65;;;14.05;;
10503;SDS011;5299;48.704;9.138;2022-07-21T01:05:41;15.80;;;13.50;;
10503;SDS011;5299;48.704;9.138;2022-07-21T01:16:40;13.27;;;11.98;;
10503;SDS011;5299;48.704;9.138;2022-07-21T01:22:02;13.50;;;10.82;;
10503;SDS011;5299;48.704;9.138;2022-07-21T01:27:19;13.32;;;10.70;;
10503;SDS011;5299;48.704;9.138;2022-07-21T01:32:22;10.82;;;8.55;;
10503;SDS011;5299;48.704;9.138;2022-07-21T01:36:39;12.52;;;9.48;;
10503;SDS011;5299;48.704;9.138;2022-07-21T01:40:55;13.13;;;9.63;;
10503;SDS011;5299;48.704;9.138;2022-07-21T01:51:11;15.48;;;9.38;;
10503;SDS011;5299;48.704;9.138;2022-07-21T03:22:10;12.32;;;8.10;;
10503;SDS011;5299;48.704;9.138;2022-07-21T03:26:53;8.55;;;7.07;;
10503;SDS011;5299;48.704;9.138;2022-07-21T03:32:02;9.57;;;7.07;;
10503;SDS011;5299;48.704;9.138;2022-07-21T18:08:31;6.63;;;3.28;;
10503;SDS011;5299;48.704;9.138;2022-07-21T18:12:34;7.93;;;4.15;;
10503;SDS011;5299;48.704;9.138;2022-07-21T18:16:35;4.80;;;2.92;;
10503;SDS011;5299;48.704;9.138;2022-07-21T18:20:37;5.35;;;3.63;;
10503;SDS011;5299;48.704;9.138;2022-07-21T18:24:38;6.50;;;3.38;;
10503;SDS011;5299;48.704;9.138;2022-07-21T18:28:40;6.53;;;3.55;;
10503;SDS011;5299;48.704;9.138;2022-07-21T18:32:42;5.85;;;3.03;;
10503;SDS011;5299;48.704;9.138;2022-07-21T18:36:44;4.82;;;3.30;;
10503;SDS011;5299;48.704;9.138;2022-07-21T18:40:45;7.47;;;3.28;;
10503;SDS011;5299;48.704;9.138;2022-07-21T18:44:47;8.63;;;3.75;;
10503;SDS011;5299;48.704;9.138;2022-07-21T18:48:49;7.00;;;3.22;;
10503;SDS011;5299;48.704;9.138;2022-07-21T18:52:54;5.68;;;3.45;;
10503;SDS011;5299;48.704;9.138;2022-07-21T18:56:56;5.57;;;3.65;;
10503;SDS011;5299;48.704;9.138;2022-07-21T19:00:57;5.38;;;3.28;;
10503;SDS011;5299;48.704;9.138;2022-07-21T19:05:03;9.10;;;3.72;;
10503;SDS011;5299;48.704;9.138;2022-07-21T19:09:06;6.50;;;3.92;;
10503;SDS011;5299;48.704;9.138;2022-07-21T19:13:07;5.45;;;3.55;;
10503;SDS011;5299;48.704;9.138;2022-07-21T19:17:09;5.93;;;4.32;;
10503;SDS011;5299;48.704;9.138;2022-07-21T19:21:11;7.55;;;4.32;;
10503;SDS011;5299;48.704;9.138;2022-07-21T19:25:14;7.57;;;4.45;;
10503;SDS011;5299;48.704;9.138;2022-07-21T19:29:15;9.77;;;4.05;;
10503;SDS011;5299;48.704;9.138;2022-07-21T19:33:17;8.63;;;4.25;;
10503;SDS011;5299;48.704;9.138;2022-07-21T19:37:18;6.30;;;3.65;;
10503;SDS011;5299;48.704;9.138;2022-07-21T19:41:20;7.07;;;3.75;;
10503;SDS011;5299;48.704;9.138;2022-07-21T19:45:21;6.03;;;4.20;;
10503;SDS011;5299;48.704;9.138;2022-07-21T19:49:23;7.72;;;3.78;;
10503;SDS011;5299;48.704;9.138;2022-07-21T19:53:24;6.85;;;4.20;;
10503;SDS011;5299;48.704;9.138;2022-07-21T19:57:26;6.60;;;4.00;;
10503;SDS011;5299;48.704;9.138;2022-07-21T20:01:28;7.47;;;4.13;;
10503;SDS011;5299;48.704;9.138;2022-07-21T20:05:30;7.43;;;4.70;;
10503;SDS011;5299;48.704;9.138;2022-07-21T20:09:31;9.77;;;4.40;;
10503;SDS011;5299;48.704;9.138;2022-07-21T20:13:33;6.38;;;4.05;;
10503;SDS011;5299;48.704;9.138;2022-07-21T20:17:35;7.25;;;4.50;;
10503;SDS011;5299;48.704;9.138;2022-07-21T20:21:42;7.05;;;4.43;;
10503;SDS011;5299;48.704;9.138;2022-07-21T20:25:44;7.25;;;4.63;;
10503;SDS011;5299;48.704;9.138;2022-07-21T20:30:05;8.20;;;4.78;;
10503;SDS011;5299;48.704;9.138;2022-07-21T20:34:08;5.70;;;4.25;;
10503;SDS011;5299;48.704;9.138;2022-07-21T20:38:10;6.65;;;4.43;;
10503;SDS011;5299;48.704;9.138;2022-07-21T20:42:11;7.28;;;5.18;;
10503;SDS011;5299;48.704;9.138;2022-07-21T20:46:14;12.50;;;5.43;;
10503;SDS011;5299;48.704;9.138;2022-07-21T20:50:20;7.65;;;4.57;;
10503;SDS011;5299;48.704;9.138;2022-07-21T20:54:21;12.43;;;5.93;;
10503;SDS011;5299;48.704;9.138;2022-07-21T20:58:23;11.75;;;5.20;;
10503;SDS011;5299;48.704;9.138;2022-07-21T21:02:25;8.52;;;5.13;;
10503;SDS011;5299;48.704;9.138;2022-07-21T21:06:33;6.80;;;5.18;;
10503;SDS011;5299;48.704;9.138;2022-07-21T21:10:35;6.10;;;4.47;;
10503;SDS011;5299;48.704;9.138;2022-07-21T21:14:37;8.18;;;4.63;;
10503;SDS011;5299;48.704;9.138;2022-07-21T21:18:38;11.05;;;5.38;;
10503;SDS011;5299;48.704;9.138;2022-07-21T21:22:41;7.05;;;4.80;;
10503;SDS011;5299;48.704;9.138;2022-07-21T21:26:42;6.32;;;4.32;;
10503;SDS011;5299;48.704;9.138;2022-07-21T21:30:45;11.30;;;5.63;;
10503;SDS011;5299;48.704;9.138;2022-07-21T21:34:47;9.57;;;5.25;;
10503;SDS011;5299;48.704;9.138;2022-07-21T21:38:49;8.68;;;5.50;;
10503;SDS011;5299;48.704;9.138;2022-07-21T21:42:51;9.13;;;5.60;;
10503;SDS011;5299;48.704;9.138;2022-07-21T21:46:52;9.55;;;5.40;;
10503;SDS011;5299;48.704;9.138;2022-07-21T21:50:54;9.68;;;5.78;;
10503;SDS011;5299;48.704;9.138;2022-07-21T21:54:55;9.07;;;5.57;;
10503;SDS011;5299;48.704;9.138;2022-07-21T21:58:57;7.25;;;5.32;;
10503;SDS011;5299;48.704;9.138;2022-07-21T22:02:59;7.45;;;5.03;;
10503;SDS011;5299;48.704;9.138;2022-07-21T22:07:01;8.77;;;5.85;;
10503;SDS011;5299;48.704;9.138;2022-07-21T22:11:03;7.80;;;5.35;;
10503;SDS011;5299;48.704;9.138;2022-07-21T22:15:05;7.53;;;5.45;;
10503;SDS011;5299;48.704;9.138;2022-07-21T22:19:07;8.43;;;5.80;;
10503;SDS011;5299;48.704;9.138;2022-07-21T22:23:08;9.00;;;5.47;;
10503;SDS011;5299;48.704;9.138;2022-07-21T22:27:10;7.53;;;5.45;;
10503;SDS011;5299;48.704;9.138;2022-07-21T22:31:12;7.70;;;5.88;;
10503;SDS011;5299;48.704;9.138;2022-07-21T22:35:14;9.32;;;5.80;;
10503;SDS011;5299;48.704;9.138;2022-07-21T22:39:15;9.02;;;6.05;;
10503;SDS011;5299;48.704;9.138;2022-07-21T22:43:17;8.10;;;5.85;;
10503;SDS011;5299;48.704;9.138;2022-07-21T22:47:18;8.85;;;6.10;;
10503;SDS011;5299;48.704;9.138;2022-07-21T22:51:20;7.80;;;5.72;;
10503;SDS011;5299;48.704;9.138;2022-07-21T22:55:21;8.52;;;5.40;;
10503;SDS011;5299;48.704;9.138;2022-07-21T22:59:23;7.93;;;6.13;;
10503;SDS011;5299;48.704;9.138;2022-07-21T23:03:25;13.15;;;5.78;;
10503;SDS011;5299;48.704;9.138;2022-07-21T23:07:26;7.38;;;5.70;;
10503;SDS011;5299;48.704;9.138;2022-07-21T23:11:28;8.27;;;5.85;;
10503;SDS011;5299;48.704;9.138;2022-07-21T23:15:29;7.20;;;5.28;;
10503;SDS011;5299;48.704;9.138;2022-07-21T23:19:31;7.00;;;5.65;;
10503;SDS011;5299;48.704;9.138;2022-07-21T23:23:33;7.38;;;5.65;;
10503;SDS011;5299;48.704;9.138;2022-07-21T23:27:34;8.85;;;5.53;;
10503;SDS011;5299;48.704;9.138;2022-07-21T23:31:36;8.65;;;5.93;;
10503;SDS011;5299;48.704;9.138;2022-07-21T23:35:38;10.52;;;6.75;;
10503;SDS011;5299;48.704;9.138;2022-07-21T23:39:40;8.32;;;5.93;;
10503;SDS011;5299;48.704;9.138;2022-07-21T23:43:41;8.65;;;6.88;;
10503;SDS011;5299;48.704;9.138;2022-07-21T23:47:43;7.45;;;6.43;;
10503;SDS011;5299;48.704;9.138;2022-07-21T23:51:44;11.55;;;8.18;;
10503;SDS011;5299;48.704;9.138;2022-07-21T23:55:46;10.63;;;7.28;;
10503;SDS011;5299;48.704;9.138;2022-07-21T23:59:48;8.40;;;6.60;;
